createdAt,value
2023-05-05T00:00:00.829Z,14.60
2023-05-05T00:02:27.806Z,14.60
2023-05-05T00:04:54.774Z,14.60
2023-05-05T00:07:21.931Z,14.60
2023-05-05T00:09:48.769Z,14.50
2023-05-05T00:12:16.132Z,14.50
2023-05-05T00:14:43.017Z,14.60
2023-05-05T00:17:10.019Z,14.60
2023-05-05T00:19:37.138Z,14.60
2023-05-05T00:22:04.121Z,14.60
2023-05-05T00:24:30.956Z,14.70
2023-05-05T00:26:58.337Z,14.70
2023-05-05T00:29:25.267Z,14.70
2023-05-05T00:31:52.913Z,14.70
2023-05-05T00:34:19.820Z,14.70
2023-05-05T00:36:46.919Z,14.70
2023-05-05T00:39:14.135Z,14.70
2023-05-05T00:41:41.895Z,14.60
2023-05-05T00:44:08.908Z,14.60
2023-05-05T00:46:37.608Z,14.50
2023-05-05T00:49:04.697Z,14.60
2023-05-05T00:51:32.411Z,14.60
2023-05-05T00:53:59.422Z,14.60
2023-05-05T00:56:27.428Z,14.70
2023-05-05T00:58:54.878Z,14.80
2023-05-05T01:01:21.835Z,14.90
2023-05-05T01:03:48.881Z,15.00
2023-05-05T01:06:37.134Z,15.00
2023-05-05T01:09:09.094Z,15.10
2023-05-05T01:11:45.658Z,15.10
2023-05-05T01:14:17.149Z,15.20
2023-05-05T01:17:08.086Z,15.20
2023-05-05T01:19:52.456Z,15.20
2023-05-05T01:22:24.689Z,15.20
2023-05-05T01:25:12.475Z,15.30
2023-05-05T01:28:16.087Z,15.20
2023-05-05T01:30:48.794Z,15.20
2023-05-05T01:33:20.153Z,15.10
2023-05-05T01:35:52.609Z,15.20
2023-05-05T01:38:28.198Z,15.10
2023-05-05T01:41:18.721Z,15.20
2023-05-05T01:43:50.669Z,15.20
2023-05-05T01:46:19.219Z,15.30
2023-05-05T01:48:48.162Z,15.30
2023-05-05T01:51:17.907Z,15.30
2023-05-05T01:53:47.318Z,15.30
2023-05-05T01:56:15.915Z,15.20
2023-05-05T01:58:46.672Z,15.20
2023-05-05T02:01:14.696Z,15.20
2023-05-05T02:03:42.242Z,15.20
2023-05-05T02:06:12.042Z,15.20
2023-05-05T02:08:41.832Z,15.20
2023-05-05T02:11:10.599Z,15.30
2023-05-05T02:13:39.353Z,15.40
2023-05-05T02:16:07.703Z,15.30
2023-05-05T02:18:36.086Z,15.30
2023-05-05T02:21:03.820Z,15.40
2023-05-05T02:23:31.258Z,15.40
2023-05-05T02:26:06.886Z,15.40
2023-05-05T02:28:48.829Z,15.50
2023-05-05T02:31:18.137Z,15.60
2023-05-05T02:33:47.475Z,15.60
2023-05-05T02:36:28.397Z,15.70
2023-05-05T02:39:12.637Z,15.70
2023-05-05T02:41:43.088Z,15.80
2023-05-05T02:44:12.560Z,15.80
2023-05-05T02:46:40.226Z,15.80
2023-05-05T02:49:07.148Z,15.80
2023-05-05T02:51:34.521Z,15.80
2023-05-05T02:54:01.911Z,15.80
2023-05-05T02:56:44.280Z,15.80
2023-05-05T02:59:39.228Z,15.80
2023-05-05T03:02:13.824Z,15.70
2023-05-05T03:04:47.076Z,15.70
2023-05-05T03:07:22.006Z,15.60
2023-05-05T03:10:03.817Z,15.50
2023-05-05T03:12:53.571Z,15.40
2023-05-05T03:15:25.748Z,15.30
2023-05-05T03:17:54.073Z,15.20
2023-05-05T03:20:22.196Z,15.10
2023-05-05T03:22:49.428Z,15.00
2023-05-05T03:25:16.365Z,14.90
2023-05-05T03:27:43.947Z,14.80
2023-05-05T03:30:11.698Z,14.80
2023-05-05T03:32:38.661Z,14.60
2023-05-05T03:35:06.029Z,14.60
2023-05-05T03:37:32.979Z,14.50
2023-05-05T03:39:59.915Z,14.50
2023-05-05T03:42:27.093Z,14.40
2023-05-05T03:44:54.726Z,14.30
2023-05-05T03:47:24.811Z,14.30
2023-05-05T03:49:52.479Z,14.10
2023-05-05T03:52:19.715Z,14.10
2023-05-05T03:54:46.547Z,14.00
2023-05-05T03:57:13.816Z,13.90
2023-05-05T03:59:40.761Z,13.90
2023-05-05T04:02:07.840Z,13.80
2023-05-05T04:04:34.911Z,13.80
2023-05-05T04:07:02.152Z,13.70
2023-05-05T04:09:28.966Z,13.70
2023-05-05T04:11:56.128Z,13.60
2023-05-05T04:14:23.405Z,13.70
2023-05-05T04:16:50.252Z,13.60
2023-05-05T04:19:17.634Z,13.50
2023-05-05T04:21:44.925Z,13.50
2023-05-05T04:24:12.099Z,13.50
2023-05-05T04:26:39.013Z,13.50
2023-05-05T04:29:06.305Z,13.50
2023-05-05T04:31:33.154Z,13.50
2023-05-05T04:34:00.223Z,13.50
2023-05-05T04:36:27.539Z,13.50
2023-05-05T04:38:57.151Z,13.60
2023-05-05T04:41:24.013Z,13.60
2023-05-05T04:43:51.244Z,13.70
2023-05-05T04:46:18.515Z,13.90
2023-05-05T04:48:45.640Z,14.10
2023-05-05T04:51:12.886Z,14.30
2023-05-05T04:53:40.188Z,14.40
2023-05-05T04:56:07.163Z,14.60
2023-05-05T04:58:34.071Z,14.70
2023-05-05T05:01:01.333Z,14.80
2023-05-05T05:03:28.307Z,14.90
2023-05-05T05:05:55.270Z,14.90
2023-05-05T05:08:22.174Z,14.90
2023-05-05T05:10:49.118Z,14.90
2023-05-05T05:13:16.031Z,14.90
2023-05-05T05:15:43.042Z,14.90
2023-05-05T05:18:09.909Z,15.00
2023-05-05T05:20:39.667Z,15.10
2023-05-05T05:23:06.557Z,15.30
2023-05-05T05:25:33.437Z,15.50
2023-05-05T05:28:09.689Z,15.70
2023-05-05T05:30:38.198Z,15.90
2023-05-05T05:33:05.205Z,16.10
2023-05-05T05:35:32.355Z,16.30
2023-05-05T05:37:59.363Z,16.50
2023-05-05T05:40:26.311Z,16.70
2023-05-05T05:42:53.175Z,16.90
2023-05-05T05:45:21.193Z,17.00
2023-05-05T05:47:48.172Z,17.10
2023-05-05T05:50:15.696Z,17.20
2023-05-05T05:52:42.701Z,17.20
2023-05-05T05:55:09.832Z,17.30
2023-05-05T05:57:36.693Z,17.20
2023-05-05T06:00:04.353Z,17.40
2023-05-05T06:02:32.613Z,17.40
2023-05-05T06:04:59.901Z,17.60
2023-05-05T06:07:26.841Z,17.60
2023-05-05T06:09:53.866Z,17.60
2023-05-05T06:12:21.379Z,17.70
2023-05-05T06:14:48.232Z,17.90
2023-05-05T06:17:15.301Z,17.90
2023-05-05T06:19:43.327Z,18.10
2023-05-05T06:22:10.234Z,18.10
2023-05-05T06:24:37.131Z,18.30
2023-05-05T06:27:04.121Z,18.50
2023-05-05T06:29:31.094Z,18.60
2023-05-05T06:31:58.128Z,18.60
2023-05-05T06:34:25.259Z,18.70
2023-05-05T06:36:52.165Z,18.80
2023-05-05T06:39:19.098Z,18.90
2023-05-05T06:41:46.055Z,18.80
2023-05-05T06:44:13.093Z,18.80
2023-05-05T06:46:40.290Z,18.90
2023-05-05T06:49:07.133Z,19.10
2023-05-05T06:51:34.147Z,19.10
2023-05-05T06:54:01.382Z,19.20
2023-05-05T06:56:28.607Z,19.00
2023-05-05T06:58:55.478Z,18.90
2023-05-05T07:01:22.585Z,19.00
2023-05-05T07:03:49.637Z,19.00
2023-05-05T07:06:16.599Z,19.10
2023-05-05T07:08:44.055Z,19.10
2023-05-05T07:11:10.899Z,19.20
2023-05-05T07:13:37.802Z,19.40
2023-05-05T07:16:05.212Z,19.60
2023-05-05T07:18:32.229Z,19.70
2023-05-05T07:20:59.190Z,19.80
2023-05-05T07:23:26.052Z,19.90
2023-05-05T07:25:54.544Z,20.00
2023-05-05T07:28:22.435Z,20.20
2023-05-05T07:30:49.339Z,20.40
2023-05-05T07:33:16.271Z,20.50
2023-05-05T07:35:43.615Z,20.70
2023-05-05T07:38:11.136Z,20.70
2023-05-05T07:40:38.026Z,20.70
2023-05-05T07:43:05.110Z,20.90
2023-05-05T07:45:32.308Z,20.90
2023-05-05T07:47:59.330Z,21.00
2023-05-05T07:50:27.110Z,21.00
2023-05-05T07:53:02.532Z,21.00
2023-05-05T07:55:37.452Z,21.20
2023-05-05T07:58:04.841Z,21.40
2023-05-05T08:00:31.712Z,21.60
2023-05-05T08:02:58.702Z,21.80
2023-05-05T08:05:25.991Z,21.90
2023-05-05T08:07:52.937Z,21.60
2023-05-05T08:10:21.925Z,21.70
2023-05-05T08:12:49.388Z,21.80
2023-05-05T08:15:16.566Z,21.90
2023-05-05T08:17:52.018Z,22.00
2023-05-05T08:20:20.459Z,22.10
2023-05-05T08:22:48.028Z,22.20
2023-05-05T08:25:15.030Z,22.30
2023-05-05T08:27:43.102Z,22.30
2023-05-05T08:30:10.784Z,22.30
2023-05-05T08:32:38.433Z,22.60
2023-05-05T08:35:06.860Z,22.70
2023-05-05T08:37:34.228Z,22.70
2023-05-05T08:40:01.243Z,22.90
2023-05-05T08:42:37.977Z,23.10
2023-05-05T08:45:10.705Z,23.30
2023-05-05T08:47:39.728Z,23.40
2023-05-05T08:50:10.018Z,23.80
2023-05-05T08:52:43.959Z,23.80
2023-05-05T08:55:26.476Z,24.00
2023-05-05T08:57:56.865Z,24.10
2023-05-05T09:00:24.569Z,24.30
2023-05-05T09:02:52.389Z,24.40
2023-05-05T09:05:19.586Z,24.30
2023-05-05T09:07:47.515Z,24.20
2023-05-05T09:10:14.834Z,24.30
2023-05-05T09:12:42.861Z,24.20
2023-05-05T09:15:11.636Z,24.30
2023-05-05T09:17:39.397Z,24.50
2023-05-05T09:20:10.356Z,24.70
2023-05-05T09:22:38.826Z,24.80
2023-05-05T09:25:07.756Z,24.90
2023-05-05T09:27:49.195Z,24.90
2023-05-05T09:30:17.938Z,24.70
2023-05-05T09:32:52.945Z,24.80
2023-05-05T09:35:21.080Z,24.70
2023-05-05T09:37:48.101Z,24.70
2023-05-05T09:40:16.825Z,25.00
2023-05-05T09:42:44.999Z,25.10
2023-05-05T09:45:18.204Z,25.40
2023-05-05T09:47:46.963Z,25.80
2023-05-05T09:50:16.326Z,25.70
2023-05-05T09:52:43.358Z,25.60
2023-05-05T09:55:19.580Z,25.50
2023-05-05T09:57:47.562Z,25.50
2023-05-05T10:00:15.202Z,25.20
2023-05-05T10:02:42.368Z,25.30
2023-05-05T10:05:14.960Z,25.00
2023-05-05T10:07:43.679Z,24.80
2023-05-05T10:10:16.684Z,24.80
2023-05-05T10:12:46.578Z,24.80
2023-05-05T10:15:15.983Z,24.70
2023-05-05T10:18:05.930Z,24.70
2023-05-05T10:20:38.221Z,24.80
2023-05-05T10:23:08.081Z,24.80
2023-05-05T10:25:49.891Z,24.90
2023-05-05T10:28:25.762Z,25.20
2023-05-05T10:30:56.866Z,25.10
2023-05-05T10:33:44.963Z,25.00
2023-05-05T10:36:12.861Z,24.80
2023-05-05T10:38:40.097Z,25.10
2023-05-05T10:41:09.488Z,25.10
2023-05-05T10:43:36.764Z,25.10
2023-05-05T10:46:04.204Z,25.20
2023-05-05T10:49:01.513Z,25.30
2023-05-05T10:51:46.945Z,25.40
2023-05-05T10:54:40.057Z,25.50
2023-05-05T10:57:10.035Z,25.30
2023-05-05T10:59:37.058Z,25.30
2023-05-05T11:02:18.548Z,25.30
2023-05-05T11:05:03.268Z,25.30
2023-05-05T11:07:30.406Z,25.30
2023-05-05T11:10:01.246Z,25.40
2023-05-05T11:12:29.579Z,25.50
2023-05-05T11:15:27.692Z,25.80
2023-05-05T11:17:59.213Z,26.00
2023-05-05T11:20:36.032Z,25.90
2023-05-05T11:23:03.158Z,25.60
2023-05-05T11:25:36.958Z,25.60
2023-05-05T11:28:12.823Z,25.50
2023-05-05T11:30:55.335Z,25.70
2023-05-05T11:33:31.356Z,25.60
2023-05-05T11:35:58.278Z,25.60
2023-05-05T11:39:02.968Z,25.70
2023-05-05T11:41:32.991Z,26.00
2023-05-05T11:44:17.158Z,25.80
2023-05-05T11:46:53.192Z,25.60
2023-05-05T11:49:34.174Z,25.50
2023-05-05T11:52:06.445Z,25.30
2023-05-05T11:54:35.560Z,24.70
2023-05-05T11:57:08.615Z,24.40
2023-05-05T11:59:37.590Z,24.30
2023-05-05T12:02:04.930Z,24.20
2023-05-05T12:04:32.405Z,24.20
2023-05-05T12:06:59.988Z,23.80
2023-05-05T12:09:27.812Z,23.70
2023-05-05T12:11:59.761Z,23.20
2023-05-05T12:14:27.543Z,23.10
2023-05-05T12:17:21.722Z,22.80
2023-05-05T12:19:51.319Z,22.90
2023-05-05T12:22:23.312Z,23.00
2023-05-05T12:24:58.242Z,23.10
2023-05-05T12:27:26.931Z,22.90
2023-05-05T12:29:55.850Z,22.40
2023-05-05T12:32:25.065Z,22.00
2023-05-05T12:34:59.304Z,21.50
2023-05-05T12:37:27.661Z,21.00
2023-05-05T12:39:57.397Z,20.70
2023-05-05T12:42:24.462Z,20.60
2023-05-05T12:44:51.371Z,20.70
2023-05-05T12:47:32.019Z,20.70
2023-05-05T12:50:00.410Z,20.80
2023-05-05T12:52:45.814Z,20.80
2023-05-05T12:55:13.274Z,20.80
2023-05-05T12:58:01.020Z,20.60
2023-05-05T13:00:29.172Z,20.50
2023-05-05T13:02:56.999Z,20.50
2023-05-05T13:05:32.136Z,20.40
2023-05-05T13:08:00.004Z,20.10
2023-05-05T13:10:28.057Z,20.00
2023-05-05T13:12:56.815Z,20.00
2023-05-05T13:15:27.633Z,20.00
2023-05-05T13:18:01.800Z,20.10
2023-05-05T13:20:28.983Z,20.10
2023-05-05T13:22:56.118Z,20.00
2023-05-05T13:25:23.235Z,19.70
2023-05-05T13:27:50.175Z,19.60
2023-05-05T13:30:17.032Z,19.30
2023-05-05T13:32:43.969Z,19.20
2023-05-05T13:35:12.227Z,19.00
2023-05-05T13:37:41.521Z,18.80
2023-05-05T13:40:09.126Z,18.50
2023-05-05T13:42:36.055Z,18.30
2023-05-05T13:45:03.450Z,18.10
2023-05-05T13:47:30.367Z,18.00
2023-05-05T13:49:57.234Z,17.80
2023-05-05T13:52:24.211Z,17.80
2023-05-05T13:54:51.918Z,17.80
2023-05-05T13:57:18.793Z,17.80
2023-05-05T13:59:45.668Z,17.90
2023-05-05T14:02:12.542Z,17.90
2023-05-05T14:04:39.696Z,17.90
2023-05-05T14:07:06.639Z,17.80
2023-05-05T14:09:33.718Z,17.80
2023-05-05T14:12:00.714Z,17.50
2023-05-05T14:14:28.407Z,17.30
2023-05-05T14:16:55.506Z,17.10
2023-05-05T14:19:22.464Z,16.90
2023-05-05T14:21:49.338Z,16.70
2023-05-05T14:24:16.294Z,16.70
2023-05-05T14:26:43.404Z,16.60
2023-05-05T14:29:10.361Z,16.60
2023-05-05T14:31:37.412Z,16.40
2023-05-05T14:34:04.579Z,16.50
2023-05-05T14:36:31.549Z,16.30
2023-05-05T14:38:58.486Z,16.20
2023-05-05T14:41:25.981Z,16.00
2023-05-05T14:43:53.052Z,15.80
2023-05-05T14:46:20.469Z,15.70
2023-05-05T14:48:47.500Z,15.60
2023-05-05T14:51:16.214Z,15.70
2023-05-05T14:53:43.159Z,15.70
2023-05-05T14:56:10.079Z,15.70
2023-05-05T14:58:37.313Z,15.60
2023-05-05T15:01:04.927Z,15.60
2023-05-05T15:03:32.358Z,15.70
2023-05-05T15:05:59.596Z,15.50
2023-05-05T15:08:26.711Z,15.50
2023-05-05T15:10:53.722Z,15.40
2023-05-05T15:13:20.666Z,15.40
2023-05-05T15:15:48.884Z,15.50
2023-05-05T15:18:15.972Z,15.60
2023-05-05T15:20:42.983Z,15.60
2023-05-05T15:23:10.006Z,15.70
2023-05-05T15:25:36.964Z,15.90
2023-05-05T15:28:07.086Z,16.00
2023-05-05T15:30:34.152Z,16.10
2023-05-05T15:33:01.218Z,16.20
2023-05-05T15:35:28.205Z,16.40
2023-05-05T15:37:55.283Z,16.40
2023-05-05T15:40:22.355Z,16.40
2023-05-05T15:42:49.927Z,16.40
2023-05-05T15:45:17.592Z,16.40
2023-05-05T15:47:44.966Z,16.50
2023-05-05T15:50:12.143Z,16.50
2023-05-05T15:52:39.076Z,16.40
2023-05-05T15:55:07.061Z,16.30
2023-05-05T15:57:34.809Z,16.20
2023-05-05T16:00:02.942Z,16.30
2023-05-05T16:02:29.942Z,16.30
2023-05-05T16:04:57.147Z,16.30
2023-05-05T16:07:24.105Z,16.30
2023-05-05T16:09:51.179Z,16.30
2023-05-05T16:12:20.881Z,16.20
2023-05-05T16:14:48.028Z,16.20
2023-05-05T16:17:14.939Z,16.50
2023-05-05T16:19:41.849Z,16.70
2023-05-05T16:22:09.148Z,16.80
2023-05-05T16:24:36.117Z,16.90
2023-05-05T16:27:03.500Z,17.00
2023-05-05T16:29:30.656Z,16.90
2023-05-05T16:31:57.590Z,17.00
2023-05-05T16:34:24.598Z,16.80
2023-05-05T16:36:53.373Z,16.90
2023-05-05T16:39:20.512Z,16.90
2023-05-05T16:41:47.370Z,16.80
2023-05-05T16:44:14.531Z,16.60
2023-05-05T16:46:41.537Z,16.60
2023-05-05T16:49:08.758Z,16.60
2023-05-05T16:51:35.819Z,16.70
2023-05-05T16:54:02.750Z,16.70
2023-05-05T16:56:29.726Z,16.70
2023-05-05T16:58:56.628Z,16.60
2023-05-05T17:01:23.585Z,16.70
2023-05-05T17:03:50.563Z,16.60
2023-05-05T17:06:17.650Z,16.60
2023-05-05T17:08:44.591Z,16.70
2023-05-05T17:11:11.963Z,16.80
2023-05-05T17:13:39.173Z,17.00
2023-05-05T17:16:06.606Z,17.10
2023-05-05T17:18:33.557Z,17.20
2023-05-05T17:21:00.403Z,17.30
2023-05-05T17:23:27.241Z,17.40
2023-05-05T17:25:54.451Z,17.80
2023-05-05T17:28:21.380Z,18.50
2023-05-05T17:30:48.279Z,18.10
2023-05-05T17:33:18.289Z,17.70
2023-05-05T17:35:45.594Z,17.30
2023-05-05T17:38:12.525Z,17.20
2023-05-05T17:40:39.446Z,17.20
2023-05-05T17:43:06.793Z,17.10
2023-05-05T17:45:33.931Z,16.70
2023-05-05T17:48:00.886Z,16.50
2023-05-05T17:50:27.996Z,16.50
2023-05-05T17:52:54.987Z,16.40
2023-05-05T17:55:21.966Z,16.30
2023-05-05T17:57:48.834Z,16.30
2023-05-05T18:00:16.061Z,16.30
2023-05-05T18:02:43.130Z,16.20
2023-05-05T18:05:10.993Z,16.20
2023-05-05T18:07:38.743Z,16.00
2023-05-05T18:10:10.896Z,15.70
2023-05-05T18:12:38.134Z,15.70
2023-05-05T18:15:05.859Z,15.70
2023-05-05T18:17:32.867Z,15.60
2023-05-05T18:19:59.897Z,15.50
2023-05-05T18:22:26.792Z,15.50
2023-05-05T18:24:59.053Z,15.40
2023-05-05T18:27:26.937Z,15.40
2023-05-05T18:29:53.784Z,15.40
2023-05-05T18:32:21.906Z,15.30
2023-05-05T18:34:48.849Z,15.20
2023-05-05T18:37:15.892Z,15.20
2023-05-05T18:39:44.069Z,15.00
2023-05-05T18:42:12.918Z,14.90
2023-05-05T18:44:39.972Z,14.90
2023-05-05T18:47:07.966Z,14.90
2023-05-05T18:49:35.154Z,14.90
2023-05-05T18:52:02.449Z,14.80
2023-05-05T18:54:29.391Z,14.70
2023-05-05T18:56:56.448Z,14.70
2023-05-05T18:59:23.952Z,14.50
2023-05-05T19:01:51.345Z,14.40
2023-05-05T19:04:30.245Z,14.40
2023-05-05T19:06:58.211Z,14.30
2023-05-05T19:09:25.085Z,14.30
2023-05-05T19:11:51.989Z,14.40
2023-05-05T19:14:19.224Z,14.40
2023-05-05T19:16:46.270Z,14.40
2023-05-05T19:19:13.168Z,14.30
2023-05-05T19:21:40.303Z,14.20
2023-05-05T19:24:08.843Z,14.10
2023-05-05T19:26:35.788Z,14.10
2023-05-05T19:29:02.824Z,14.00
2023-05-05T19:31:31.249Z,14.00
2023-05-05T19:34:03.122Z,13.90
2023-05-05T19:36:34.652Z,13.90
2023-05-05T19:39:02.250Z,13.80
2023-05-05T19:41:30.664Z,13.80
2023-05-05T19:43:57.800Z,13.70
2023-05-05T19:46:27.903Z,13.80
2023-05-05T19:48:54.885Z,13.70
2023-05-05T19:51:21.813Z,13.50
2023-05-05T19:53:48.830Z,13.50
2023-05-05T19:56:17.487Z,13.40
2023-05-05T19:59:00.428Z,13.30
2023-05-05T20:01:29.373Z,13.30
2023-05-05T20:03:57.327Z,13.20
2023-05-05T20:06:24.574Z,13.10
2023-05-05T20:08:52.312Z,13.00
2023-05-05T20:11:20.164Z,13.00
2023-05-05T20:13:48.138Z,12.90
2023-05-05T20:16:15.835Z,12.90
2023-05-05T20:18:43.351Z,12.80
2023-05-05T20:21:10.652Z,12.80
2023-05-05T20:23:37.810Z,12.70
2023-05-05T20:26:05.988Z,12.70
2023-05-05T20:28:33.250Z,12.60
2023-05-05T20:31:03.209Z,12.50
2023-05-05T20:33:30.321Z,12.50
2023-05-05T20:35:57.257Z,12.40
2023-05-05T20:38:24.136Z,12.40
2023-05-05T20:40:52.677Z,12.30
2023-05-05T20:43:19.965Z,12.30
2023-05-05T20:45:50.061Z,12.30
2023-05-05T20:48:16.928Z,12.20
2023-05-05T20:50:44.166Z,12.20
2023-05-05T20:53:13.871Z,12.10
2023-05-05T20:55:41.195Z,12.00
2023-05-05T20:58:08.206Z,12.00
2023-05-05T21:00:35.463Z,11.90
2023-05-05T21:03:03.085Z,11.90
2023-05-05T21:05:31.220Z,11.80
2023-05-05T21:08:00.455Z,11.80
2023-05-05T21:10:29.061Z,11.70
2023-05-05T21:12:56.278Z,11.70
2023-05-05T21:15:23.354Z,11.70
2023-05-05T21:17:50.299Z,11.60
2023-05-05T21:20:18.664Z,11.60
2023-05-05T21:22:46.176Z,11.60
2023-05-05T21:25:13.018Z,11.60
2023-05-05T21:27:39.970Z,11.50
2023-05-05T21:30:10.144Z,11.50
2023-05-05T21:32:39.468Z,11.50
2023-05-05T21:35:08.208Z,11.50
2023-05-05T21:37:37.037Z,11.40
2023-05-05T21:40:04.732Z,11.40
2023-05-05T21:42:31.780Z,11.30
2023-05-05T21:44:58.659Z,11.30
2023-05-05T21:47:25.572Z,11.20
2023-05-05T21:49:52.657Z,11.20
2023-05-05T21:52:19.685Z,11.10
2023-05-05T21:54:46.675Z,11.10
2023-05-05T21:57:13.629Z,11.10
2023-05-05T21:59:41.405Z,11.00
2023-05-05T22:02:08.490Z,11.00
2023-05-05T22:04:35.413Z,10.90
2023-05-05T22:07:02.555Z,11.00
2023-05-05T22:09:29.427Z,11.00
2023-05-05T22:11:57.672Z,10.90
2023-05-05T22:14:25.136Z,10.90
2023-05-05T22:16:52.039Z,10.90
2023-05-05T22:19:18.888Z,10.80
2023-05-05T22:21:45.740Z,10.80
2023-05-05T22:24:12.637Z,10.80
2023-05-05T22:26:43.480Z,10.80
2023-05-05T22:29:11.119Z,10.80
2023-05-05T22:31:38.271Z,10.70
2023-05-05T22:34:05.666Z,10.70
2023-05-05T22:36:32.525Z,10.70
2023-05-05T22:38:59.473Z,10.80
2023-05-05T22:41:26.316Z,10.80
2023-05-05T22:43:53.261Z,10.70
2023-05-05T22:46:20.174Z,10.70
2023-05-05T22:48:47.068Z,10.80
2023-05-05T22:51:14.141Z,10.80
2023-05-05T22:53:40.988Z,10.80
2023-05-05T22:56:07.958Z,10.80
2023-05-05T22:58:34.909Z,10.70
2023-05-05T23:01:01.778Z,10.70
2023-05-05T23:03:28.894Z,10.70
2023-05-05T23:05:55.795Z,10.70
2023-05-05T23:08:24.149Z,10.70
2023-05-05T23:10:51.080Z,10.60
2023-05-05T23:13:18.005Z,10.60
2023-05-05T23:15:44.987Z,10.60
2023-05-05T23:18:11.911Z,10.60
2023-05-05T23:20:39.149Z,10.60
2023-05-05T23:23:06.027Z,10.60
2023-05-05T23:25:32.987Z,10.60
2023-05-05T23:27:59.935Z,10.60
2023-05-05T23:30:27.105Z,10.50
2023-05-05T23:32:54.889Z,10.50
2023-05-05T23:35:21.903Z,10.50
2023-05-05T23:37:49.456Z,10.40
2023-05-05T23:40:16.739Z,10.40
2023-05-05T23:42:43.685Z,10.40
2023-05-05T23:45:11.337Z,10.40
2023-05-05T23:47:38.848Z,10.30
2023-05-05T23:50:06.728Z,10.30
2023-05-05T23:52:33.617Z,10.30
2023-05-05T23:55:00.591Z,10.30
2023-05-05T23:57:27.498Z,10.30
2023-05-05T23:59:54.456Z,10.30
